sensor_id;sensor_type;location;lat;lon;timestamp;temperature;humidity
324;DHT22;149;51.094;17.002;2023-05-24T00:02:14;15.00;99.90
324;DHT22;149;51.094;17.002;2023-05-24T00:04:45;14.80;99.90
324;DHT22;149;51.094;17.002;2023-05-24T00:07:18;14.70;99.90
324;DHT22;149;51.094;17.002;2023-05-24T00:09:53;14.50;99.90
324;DHT22;149;51.094;17.002;2023-05-24T00:12:19;14.50;99.90
324;DHT22;149;51.094;17.002;2023-05-24T00:14:46;14.40;99.90
324;DHT22;149;51.094;17.002;2023-05-24T00:17:16;14.20;99.90
324;DHT22;149;51.094;17.002;2023-05-24T00:19:42;14.10;99.90
324;DHT22;149;51.094;17.002;2023-05-24T00:22:15;14.10;99.90
324;DHT22;149;51.094;17.002;2023-05-24T00:24:44;13.90;99.90
324;DHT22;149;51.094;17.002;2023-05-24T00:27:13;13.80;99.90
324;DHT22;149;51.094;17.002;2023-05-24T00:29:41;13.70;99.90
324;DHT22;149;51.094;17.002;2023-05-24T00:32:09;13.70;99.90
324;DHT22;149;51.094;17.002;2023-05-24T00:34:36;13.60;99.90
324;DHT22;149;51.094;17.002;2023-05-24T00:37:03;13.60;99.90
324;DHT22;149;51.094;17.002;2023-05-24T00:39:30;13.60;99.90
324;DHT22;149;51.094;17.002;2023-05-24T00:41:58;13.50;99.90
324;DHT22;149;51.094;17.002;2023-05-24T00:44:26;13.40;99.90
324;DHT22;149;51.094;17.002;2023-05-24T00:46:55;13.40;99.90
324;DHT22;149;51.094;17.002;2023-05-24T00:49:23;13.40;99.90
324;DHT22;149;51.094;17.002;2023-05-24T00:51:52;13.30;99.90
324;DHT22;149;51.094;17.002;2023-05-24T00:54:20;13.30;99.90
324;DHT22;149;51.094;17.002;2023-05-24T00:56:49;13.20;99.90
324;DHT22;149;51.094;17.002;2023-05-24T00:59:17;13.20;99.90
324;DHT22;149;51.094;17.002;2023-05-24T01:01:45;13.10;99.90
324;DHT22;149;51.094;17.002;2023-05-24T01:04:13;13.20;99.90
324;DHT22;149;51.094;17.002;2023-05-24T01:07:15;13.10;99.90
324;DHT22;149;51.094;17.002;2023-05-24T01:09:56;13.10;99.90
324;DHT22;149;51.094;17.002;2023-05-24T01:15:07;13.00;99.90
324;DHT22;149;51.094;17.002;2023-05-24T01:17:52;13.00;99.90
324;DHT22;149;51.094;17.002;2023-05-24T01:20:28;12.80;99.90
324;DHT22;149;51.094;17.002;2023-05-24T01:28:33;12.50;99.90
324;DHT22;149;51.094;17.002;2023-05-24T01:31:01;12.50;99.90
324;DHT22;149;51.094;17.002;2023-05-24T01:33:30;12.50;99.90
324;DHT22;149;51.094;17.002;2023-05-24T01:35:59;12.50;99.90
324;DHT22;149;51.094;17.002;2023-05-24T01:38:26;12.40;99.90
324;DHT22;149;51.094;17.002;2023-05-24T01:43:51;12.30;99.90
324;DHT22;149;51.094;17.002;2023-05-24T01:46:37;12.20;99.90
324;DHT22;149;51.094;17.002;2023-05-24T01:49:28;12.10;99.90
324;DHT22;149;51.094;17.002;2023-05-24T01:52:04;12.10;99.90
324;DHT22;149;51.094;17.002;2023-05-24T01:54:40;12.00;99.90
324;DHT22;149;51.094;17.002;2023-05-24T01:57:09;12.10;99.90
324;DHT22;149;51.094;17.002;2023-05-24T01:59:42;12.00;99.90
324;DHT22;149;51.094;17.002;2023-05-24T02:02:10;11.80;99.90
324;DHT22;149;51.094;17.002;2023-05-24T02:04:38;11.70;99.90
324;DHT22;149;51.094;17.002;2023-05-24T02:07:05;11.60;99.90
324;DHT22;149;51.094;17.002;2023-05-24T02:09:33;11.60;99.90
324;DHT22;149;51.094;17.002;2023-05-24T02:12:00;11.60;99.90
324;DHT22;149;51.094;17.002;2023-05-24T02:14:29;11.50;99.90
324;DHT22;149;51.094;17.002;2023-05-24T02:16:56;11.50;99.90
324;DHT22;149;51.094;17.002;2023-05-24T02:19:25;11.50;99.90
324;DHT22;149;51.094;17.002;2023-05-24T02:21:55;11.50;99.90
324;DHT22;149;51.094;17.002;2023-05-24T02:24:24;11.40;99.90
324;DHT22;149;51.094;17.002;2023-05-24T02:26:51;11.30;99.90
324;DHT22;149;51.094;17.002;2023-05-24T02:29:18;11.20;99.90
324;DHT22;149;51.094;17.002;2023-05-24T02:31:45;11.10;99.90
324;DHT22;149;51.094;17.002;2023-05-24T02:34:12;11.20;99.90
324;DHT22;149;51.094;17.002;2023-05-24T02:36:40;11.30;99.90
324;DHT22;149;51.094;17.002;2023-05-24T02:39:08;11.10;99.90
324;DHT22;149;51.094;17.002;2023-05-24T02:41:35;11.10;99.90
324;DHT22;149;51.094;17.002;2023-05-24T02:44:05;11.00;99.90
324;DHT22;149;51.094;17.002;2023-05-24T02:46:32;11.00;99.90
324;DHT22;149;51.094;17.002;2023-05-24T02:49:00;11.00;99.90
324;DHT22;149;51.094;17.002;2023-05-24T02:51:27;11.10;99.90
324;DHT22;149;51.094;17.002;2023-05-24T02:53:59;11.20;99.90
324;DHT22;149;51.094;17.002;2023-05-24T02:56:26;11.10;99.90
324;DHT22;149;51.094;17.002;2023-05-24T02:58:57;11.20;99.90
324;DHT22;149;51.094;17.002;2023-05-24T03:01:24;11.20;99.90
324;DHT22;149;51.094;17.002;2023-05-24T03:03:51;11.20;99.90
324;DHT22;149;51.094;17.002;2023-05-24T03:06:19;11.30;99.90
324;DHT22;149;51.094;17.002;2023-05-24T03:08:46;11.40;99.90
324;DHT22;149;51.094;17.002;2023-05-24T03:11:15;11.40;99.90
324;DHT22;149;51.094;17.002;2023-05-24T03:13:47;11.40;99.90
324;DHT22;149;51.094;17.002;2023-05-24T03:16:16;11.30;99.90
324;DHT22;149;51.094;17.002;2023-05-24T03:18:44;11.30;99.90
324;DHT22;149;51.094;17.002;2023-05-24T03:21:10;11.40;99.90
324;DHT22;149;51.094;17.002;2023-05-24T03:23:38;11.20;99.90
324;DHT22;149;51.094;17.002;2023-05-24T03:26:05;11.30;99.90
324;DHT22;149;51.094;17.002;2023-05-24T03:28:32;11.20;99.90
324;DHT22;149;51.094;17.002;2023-05-24T03:31:01;11.30;99.90
324;DHT22;149;51.094;17.002;2023-05-24T03:33:30;11.20;99.90
324;DHT22;149;51.094;17.002;2023-05-24T03:35:58;11.10;99.90
324;DHT22;149;51.094;17.002;2023-05-24T03:38:26;11.10;99.90
324;DHT22;149;51.094;17.002;2023-05-24T03:40:55;11.10;99.90
324;DHT22;149;51.094;17.002;2023-05-24T03:43:22;11.10;99.90
324;DHT22;149;51.094;17.002;2023-05-24T03:45:49;11.00;99.90
324;DHT22;149;51.094;17.002;2023-05-24T03:48:17;11.10;99.90
324;DHT22;149;51.094;17.002;2023-05-24T03:50:47;11.10;99.90
324;DHT22;149;51.094;17.002;2023-05-24T03:53:16;11.20;99.90
324;DHT22;149;51.094;17.002;2023-05-24T03:55:43;11.20;99.90
324;DHT22;149;51.094;17.002;2023-05-24T03:58:11;11.30;99.90
324;DHT22;149;51.094;17.002;2023-05-24T04:00:38;11.30;99.90
324;DHT22;149;51.094;17.002;2023-05-24T04:03:05;11.40;99.90
324;DHT22;149;51.094;17.002;2023-05-24T04:05:33;11.40;99.90
324;DHT22;149;51.094;17.002;2023-05-24T04:08:00;11.30;99.90
324;DHT22;149;51.094;17.002;2023-05-24T04:10:29;11.40;99.90
324;DHT22;149;51.094;17.002;2023-05-24T04:12:56;11.40;99.90
324;DHT22;149;51.094;17.002;2023-05-24T04:15:23;11.40;99.90
324;DHT22;149;51.094;17.002;2023-05-24T04:17:53;11.40;99.90
324;DHT22;149;51.094;17.002;2023-05-24T04:20:22;11.40;99.90
324;DHT22;149;51.094;17.002;2023-05-24T04:22:54;11.40;99.90
324;DHT22;149;51.094;17.002;2023-05-24T04:25:22;11.40;99.90
324;DHT22;149;51.094;17.002;2023-05-24T04:27:49;11.50;99.90
324;DHT22;149;51.094;17.002;2023-05-24T04:30:19;11.50;99.90
324;DHT22;149;51.094;17.002;2023-05-24T04:32:49;11.50;99.90
324;DHT22;149;51.094;17.002;2023-05-24T04:35:17;11.70;99.90
324;DHT22;149;51.094;17.002;2023-05-24T04:37:46;11.50;99.90
324;DHT22;149;51.094;17.002;2023-05-24T04:40:17;11.50;99.90
324;DHT22;149;51.094;17.002;2023-05-24T04:42:48;11.60;99.90
324;DHT22;149;51.094;17.002;2023-05-24T04:45:15;11.60;99.90
324;DHT22;149;51.094;17.002;2023-05-24T04:47:45;11.60;99.90
324;DHT22;149;51.094;17.002;2023-05-24T04:50:12;11.60;99.90
324;DHT22;149;51.094;17.002;2023-05-24T04:52:39;11.70;99.90
324;DHT22;149;51.094;17.002;2023-05-24T04:55:07;11.70;99.90
324;DHT22;149;51.094;17.002;2023-05-24T04:57:35;11.80;99.90
324;DHT22;149;51.094;17.002;2023-05-24T05:00:04;11.90;99.90
324;DHT22;149;51.094;17.002;2023-05-24T05:02:33;11.90;99.90
324;DHT22;149;51.094;17.002;2023-05-24T05:05:00;11.80;99.90
324;DHT22;149;51.094;17.002;2023-05-24T05:07:28;11.90;99.90
324;DHT22;149;51.094;17.002;2023-05-24T05:09:56;11.90;99.90
324;DHT22;149;51.094;17.002;2023-05-24T05:12:24;11.90;99.90
324;DHT22;149;51.094;17.002;2023-05-24T05:14:51;12.00;99.90
324;DHT22;149;51.094;17.002;2023-05-24T05:17:20;12.00;99.90
324;DHT22;149;51.094;17.002;2023-05-24T05:19:48;12.10;99.90
324;DHT22;149;51.094;17.002;2023-05-24T05:22:16;12.20;99.90
324;DHT22;149;51.094;17.002;2023-05-24T05:24:44;12.30;99.90
324;DHT22;149;51.094;17.002;2023-05-24T05:27:11;12.40;99.90
324;DHT22;149;51.094;17.002;2023-05-24T05:29:39;12.50;99.90
324;DHT22;149;51.094;17.002;2023-05-24T05:32:08;12.60;99.90
324;DHT22;149;51.094;17.002;2023-05-24T05:34:35;12.40;99.90
324;DHT22;149;51.094;17.002;2023-05-24T05:37:03;12.20;99.90
324;DHT22;149;51.094;17.002;2023-05-24T05:39:30;12.10;99.90
324;DHT22;149;51.094;17.002;2023-05-24T05:42:01;12.00;99.90
324;DHT22;149;51.094;17.002;2023-05-24T05:44:28;11.90;99.90
324;DHT22;149;51.094;17.002;2023-05-24T05:46:55;11.90;99.90
324;DHT22;149;51.094;17.002;2023-05-24T05:49:23;11.80;99.90
324;DHT22;149;51.094;17.002;2023-05-24T05:52:02;11.90;99.90
324;DHT22;149;51.094;17.002;2023-05-24T05:54:32;11.80;99.90
324;DHT22;149;51.094;17.002;2023-05-24T05:57:00;11.70;99.90
324;DHT22;149;51.094;17.002;2023-05-24T05:59:27;11.80;99.90
324;DHT22;149;51.094;17.002;2023-05-24T06:01:54;12.10;99.90
324;DHT22;149;51.094;17.002;2023-05-24T06:04:21;12.30;99.90
324;DHT22;149;51.094;17.002;2023-05-24T06:06:48;12.40;99.90
324;DHT22;149;51.094;17.002;2023-05-24T06:09:18;12.50;99.90
324;DHT22;149;51.094;17.002;2023-05-24T06:11:54;12.40;99.90
324;DHT22;149;51.094;17.002;2023-05-24T06:14:22;12.30;99.90
324;DHT22;149;51.094;17.002;2023-05-24T06:16:52;12.30;99.90
324;DHT22;149;51.094;17.002;2023-05-24T06:19:23;12.20;99.90
324;DHT22;149;51.094;17.002;2023-05-24T06:21:51;12.20;99.90
324;DHT22;149;51.094;17.002;2023-05-24T06:24:19;12.30;99.90
324;DHT22;149;51.094;17.002;2023-05-24T06:26:50;12.40;99.90
324;DHT22;149;51.094;17.002;2023-05-24T06:29:18;12.50;99.90
324;DHT22;149;51.094;17.002;2023-05-24T06:31:48;12.70;99.90
324;DHT22;149;51.094;17.002;2023-05-24T06:34:18;13.00;99.90
324;DHT22;149;51.094;17.002;2023-05-24T06:36:47;13.20;99.90
324;DHT22;149;51.094;17.002;2023-05-24T06:39:19;13.50;99.90
324;DHT22;149;51.094;17.002;2023-05-24T06:41:53;14.00;99.90
324;DHT22;149;51.094;17.002;2023-05-24T06:44:21;14.40;99.90
324;DHT22;149;51.094;17.002;2023-05-24T06:46:50;14.40;99.90
324;DHT22;149;51.094;17.002;2023-05-24T06:49:18;14.70;99.90
324;DHT22;149;51.094;17.002;2023-05-24T06:51:48;14.70;99.90
324;DHT22;149;51.094;17.002;2023-05-24T06:54:20;14.90;99.90
324;DHT22;149;51.094;17.002;2023-05-24T06:56:53;15.20;99.90
324;DHT22;149;51.094;17.002;2023-05-24T06:59:23;15.80;99.90
324;DHT22;149;51.094;17.002;2023-05-24T07:01:52;15.80;99.90
324;DHT22;149;51.094;17.002;2023-05-24T07:04:26;15.60;99.90
324;DHT22;149;51.094;17.002;2023-05-24T07:06:54;15.20;99.90
324;DHT22;149;51.094;17.002;2023-05-24T07:09:23;15.20;99.90
324;DHT22;149;51.094;17.002;2023-05-24T07:11:53;15.10;99.90
324;DHT22;149;51.094;17.002;2023-05-24T07:14:21;15.20;99.90
324;DHT22;149;51.094;17.002;2023-05-24T07:16:49;15.20;99.90
324;DHT22;149;51.094;17.002;2023-05-24T07:19:17;14.70;99.90
324;DHT22;149;51.094;17.002;2023-05-24T07:21:46;14.60;99.90
324;DHT22;149;51.094;17.002;2023-05-24T07:24:13;14.70;99.90
324;DHT22;149;51.094;17.002;2023-05-24T07:26:42;14.80;99.90
324;DHT22;149;51.094;17.002;2023-05-24T07:29:09;14.70;99.90
324;DHT22;149;51.094;17.002;2023-05-24T07:31:38;14.30;99.90
324;DHT22;149;51.094;17.002;2023-05-24T07:34:06;14.30;99.90
324;DHT22;149;51.094;17.002;2023-05-24T07:36:34;14.40;99.90
324;DHT22;149;51.094;17.002;2023-05-24T07:39:01;14.40;99.90
324;DHT22;149;51.094;17.002;2023-05-24T07:41:30;14.20;99.90
324;DHT22;149;51.094;17.002;2023-05-24T07:43:59;14.10;99.90
324;DHT22;149;51.094;17.002;2023-05-24T07:46:33;14.10;99.90
324;DHT22;149;51.094;17.002;2023-05-24T07:49:01;14.00;99.90
324;DHT22;149;51.094;17.002;2023-05-24T07:51:28;13.80;99.90
324;DHT22;149;51.094;17.002;2023-05-24T07:53:56;13.80;99.90
324;DHT22;149;51.094;17.002;2023-05-24T07:56:23;13.60;99.90
324;DHT22;149;51.094;17.002;2023-05-24T07:58:50;13.80;99.90
324;DHT22;149;51.094;17.002;2023-05-24T08:01:20;13.70;99.90
324;DHT22;149;51.094;17.002;2023-05-24T08:03:47;13.70;99.90
324;DHT22;149;51.094;17.002;2023-05-24T08:06:15;14.20;99.90
324;DHT22;149;51.094;17.002;2023-05-24T08:08:42;14.90;99.90
324;DHT22;149;51.094;17.002;2023-05-24T08:11:09;15.20;99.90
324;DHT22;149;51.094;17.002;2023-05-24T08:13:36;15.50;99.90
324;DHT22;149;51.094;17.002;2023-05-24T08:16:03;15.70;99.90
324;DHT22;149;51.094;17.002;2023-05-24T08:18:31;16.10;99.90
324;DHT22;149;51.094;17.002;2023-05-24T08:21:03;16.40;99.90
324;DHT22;149;51.094;17.002;2023-05-24T08:23:29;16.70;99.90
324;DHT22;149;51.094;17.002;2023-05-24T08:26:01;17.10;99.90
324;DHT22;149;51.094;17.002;2023-05-24T08:28:28;17.10;99.90
324;DHT22;149;51.094;17.002;2023-05-24T08:30:56;17.20;99.90
324;DHT22;149;51.094;17.002;2023-05-24T08:33:25;17.00;99.90
324;DHT22;149;51.094;17.002;2023-05-24T08:35:53;17.00;99.90
324;DHT22;149;51.094;17.002;2023-05-24T08:38:21;17.10;99.90
324;DHT22;149;51.094;17.002;2023-05-24T08:40:47;17.00;99.90
324;DHT22;149;51.094;17.002;2023-05-24T08:43:18;16.90;99.90
324;DHT22;149;51.094;17.002;2023-05-24T08:45:45;17.10;99.90
324;DHT22;149;51.094;17.002;2023-05-24T08:48:14;17.00;99.90
324;DHT22;149;51.094;17.002;2023-05-24T08:50:43;16.80;99.90
324;DHT22;149;51.094;17.002;2023-05-24T08:53:13;17.30;99.90
324;DHT22;149;51.094;17.002;2023-05-24T08:55:55;17.70;99.90
324;DHT22;149;51.094;17.002;2023-05-24T08:58:23;17.60;99.90
324;DHT22;149;51.094;17.002;2023-05-24T09:00:55;17.60;99.90
324;DHT22;149;51.094;17.002;2023-05-24T09:03:24;17.90;99.90
324;DHT22;149;51.094;17.002;2023-05-24T09:05:59;17.50;99.90
324;DHT22;149;51.094;17.002;2023-05-24T09:08:30;17.30;99.90
324;DHT22;149;51.094;17.002;2023-05-24T09:11:14;17.20;99.90
324;DHT22;149;51.094;17.002;2023-05-24T09:13:44;17.40;99.90
324;DHT22;149;51.094;17.002;2023-05-24T09:16:11;17.20;99.90
324;DHT22;149;51.094;17.002;2023-05-24T09:18:40;17.00;99.90
324;DHT22;149;51.094;17.002;2023-05-24T09:21:12;17.10;99.90
324;DHT22;149;51.094;17.002;2023-05-24T09:23:51;17.10;99.90
324;DHT22;149;51.094;17.002;2023-05-24T09:26:19;17.10;99.90
324;DHT22;149;51.094;17.002;2023-05-24T09:28:54;17.50;99.90
324;DHT22;149;51.094;17.002;2023-05-24T09:31:35;17.50;99.90
324;DHT22;149;51.094;17.002;2023-05-24T09:34:02;17.90;99.90
324;DHT22;149;51.094;17.002;2023-05-24T09:36:31;18.00;99.90
324;DHT22;149;51.094;17.002;2023-05-24T09:39:06;18.10;99.90
324;DHT22;149;51.094;17.002;2023-05-24T09:41:36;18.40;99.90
324;DHT22;149;51.094;17.002;2023-05-24T09:44:06;18.70;99.90
324;DHT22;149;51.094;17.002;2023-05-24T09:46:36;19.00;99.90
324;DHT22;149;51.094;17.002;2023-05-24T09:49:25;18.70;99.90
324;DHT22;149;51.094;17.002;2023-05-24T09:51:52;18.50;99.90
324;DHT22;149;51.094;17.002;2023-05-24T09:54:23;18.60;99.90
324;DHT22;149;51.094;17.002;2023-05-24T09:56:52;18.60;99.90
324;DHT22;149;51.094;17.002;2023-05-24T09:59:19;18.70;99.90
324;DHT22;149;51.094;17.002;2023-05-24T10:01:47;18.50;99.90
324;DHT22;149;51.094;17.002;2023-05-24T10:04:31;18.00;99.90
324;DHT22;149;51.094;17.002;2023-05-24T10:07:00;17.80;99.90
324;DHT22;149;51.094;17.002;2023-05-24T10:09:31;17.70;99.90
324;DHT22;149;51.094;17.002;2023-05-24T10:12:02;17.70;99.90
324;DHT22;149;51.094;17.002;2023-05-24T10:14:35;17.90;99.90
324;DHT22;149;51.094;17.002;2023-05-24T10:17:04;18.00;99.90
324;DHT22;149;51.094;17.002;2023-05-24T10:19:32;17.80;99.90
324;DHT22;149;51.094;17.002;2023-05-24T10:22:05;17.90;99.90
324;DHT22;149;51.094;17.002;2023-05-24T10:24:35;17.90;99.90
324;DHT22;149;51.094;17.002;2023-05-24T10:27:11;17.60;99.90
324;DHT22;149;51.094;17.002;2023-05-24T10:29:58;17.40;99.90
324;DHT22;149;51.094;17.002;2023-05-24T10:32:27;17.20;99.90
324;DHT22;149;51.094;17.002;2023-05-24T10:35:00;17.70;99.90
324;DHT22;149;51.094;17.002;2023-05-24T10:37:40;18.00;99.90
324;DHT22;149;51.094;17.002;2023-05-24T10:40:16;18.10;99.90
324;DHT22;149;51.094;17.002;2023-05-24T10:42:46;17.80;99.90
324;DHT22;149;51.094;17.002;2023-05-24T10:45:35;17.70;99.90
324;DHT22;149;51.094;17.002;2023-05-24T10:50:42;17.70;99.90
324;DHT22;149;51.094;17.002;2023-05-24T10:53:18;18.30;99.90
324;DHT22;149;51.094;17.002;2023-05-24T10:55:55;18.30;99.90
324;DHT22;149;51.094;17.002;2023-05-24T11:01:27;17.70;99.90
324;DHT22;149;51.094;17.002;2023-05-24T11:04:11;17.90;99.90
324;DHT22;149;51.094;17.002;2023-05-24T11:06:48;18.00;99.90
324;DHT22;149;51.094;17.002;2023-05-24T11:09:16;18.10;99.90
324;DHT22;149;51.094;17.002;2023-05-24T11:11:48;18.40;99.90
324;DHT22;149;51.094;17.002;2023-05-24T11:14:22;18.40;99.90
324;DHT22;149;51.094;17.002;2023-05-24T11:16:49;18.20;99.90
324;DHT22;149;51.094;17.002;2023-05-24T11:19:28;17.90;99.90
324;DHT22;149;51.094;17.002;2023-05-24T11:21:56;18.00;99.90
324;DHT22;149;51.094;17.002;2023-05-24T11:24:29;17.80;99.90
324;DHT22;149;51.094;17.002;2023-05-24T11:26:58;17.50;99.90
324;DHT22;149;51.094;17.002;2023-05-24T11:29:26;17.20;99.90
324;DHT22;149;51.094;17.002;2023-05-24T11:31:58;16.90;99.90
324;DHT22;149;51.094;17.002;2023-05-24T11:34:32;17.10;99.90
324;DHT22;149;51.094;17.002;2023-05-24T11:37:02;17.00;99.90
324;DHT22;149;51.094;17.002;2023-05-24T11:39:36;17.20;99.90
324;DHT22;149;51.094;17.002;2023-05-24T11:42:04;17.60;99.90
324;DHT22;149;51.094;17.002;2023-05-24T11:44:33;17.90;99.90
324;DHT22;149;51.094;17.002;2023-05-24T11:47:02;18.10;99.90
324;DHT22;149;51.094;17.002;2023-05-24T11:49:30;18.20;99.90
324;DHT22;149;51.094;17.002;2023-05-24T11:51:58;18.40;99.90
324;DHT22;149;51.094;17.002;2023-05-24T11:54:28;18.10;99.90
324;DHT22;149;51.094;17.002;2023-05-24T11:56:55;18.00;99.90
324;DHT22;149;51.094;17.002;2023-05-24T11:59:26;18.20;99.90
324;DHT22;149;51.094;17.002;2023-05-24T12:01:58;18.20;99.90
324;DHT22;149;51.094;17.002;2023-05-24T12:04:30;18.50;99.90
324;DHT22;149;51.094;17.002;2023-05-24T12:06:58;18.80;99.90
324;DHT22;149;51.094;17.002;2023-05-24T12:09:26;18.90;99.90
324;DHT22;149;51.094;17.002;2023-05-24T12:11:54;18.70;99.90
324;DHT22;149;51.094;17.002;2023-05-24T12:14:31;18.60;99.90
324;DHT22;149;51.094;17.002;2023-05-24T12:17:01;18.50;99.90
324;DHT22;149;51.094;17.002;2023-05-24T12:19:30;18.40;99.90
324;DHT22;149;51.094;17.002;2023-05-24T12:22:05;18.40;99.90
324;DHT22;149;51.094;17.002;2023-05-24T12:24:36;18.20;99.90
324;DHT22;149;51.094;17.002;2023-05-24T12:27:10;18.40;99.90
324;DHT22;149;51.094;17.002;2023-05-24T12:29:39;18.90;99.90
324;DHT22;149;51.094;17.002;2023-05-24T12:32:09;19.10;99.90
324;DHT22;149;51.094;17.002;2023-05-24T12:34:42;19.00;99.90
324;DHT22;149;51.094;17.002;2023-05-24T12:37:10;19.10;99.90
324;DHT22;149;51.094;17.002;2023-05-24T12:39:40;19.30;99.90
324;DHT22;149;51.094;17.002;2023-05-24T12:42:11;19.10;99.90
324;DHT22;149;51.094;17.002;2023-05-24T12:44:43;18.90;99.90
324;DHT22;149;51.094;17.002;2023-05-24T12:47:13;19.40;99.90
324;DHT22;149;51.094;17.002;2023-05-24T12:49:46;19.10;99.90
324;DHT22;149;51.094;17.002;2023-05-24T12:52:13;18.70;99.90
324;DHT22;149;51.094;17.002;2023-05-24T12:54:42;18.50;99.90
324;DHT22;149;51.094;17.002;2023-05-24T12:57:10;18.40;99.90
324;DHT22;149;51.094;17.002;2023-05-24T12:59:41;18.50;99.90
324;DHT22;149;51.094;17.002;2023-05-24T13:02:17;18.20;99.90
324;DHT22;149;51.094;17.002;2023-05-24T13:04:46;18.00;99.90
324;DHT22;149;51.094;17.002;2023-05-24T13:07:14;18.20;99.90
324;DHT22;149;51.094;17.002;2023-05-24T13:09:44;18.30;99.90
324;DHT22;149;51.094;17.002;2023-05-24T13:12:11;18.30;99.90
324;DHT22;149;51.094;17.002;2023-05-24T13:14:39;18.40;99.90
324;DHT22;149;51.094;17.002;2023-05-24T13:17:11;18.20;99.90
324;DHT22;149;51.094;17.002;2023-05-24T13:19:41;18.20;99.90
324;DHT22;149;51.094;17.002;2023-05-24T13:22:09;18.50;99.90
324;DHT22;149;51.094;17.002;2023-05-24T13:24:42;18.60;99.90
324;DHT22;149;51.094;17.002;2023-05-24T13:27:10;18.80;99.90
324;DHT22;149;51.094;17.002;2023-05-24T13:29:41;18.80;99.90
324;DHT22;149;51.094;17.002;2023-05-24T13:32:25;18.90;99.90
324;DHT22;149;51.094;17.002;2023-05-24T13:34:55;19.10;99.90
324;DHT22;149;51.094;17.002;2023-05-24T13:37:37;18.90;99.90
324;DHT22;149;51.094;17.002;2023-05-24T13:40:05;19.30;99.90
324;DHT22;149;51.094;17.002;2023-05-24T13:42:35;19.20;99.90
324;DHT22;149;51.094;17.002;2023-05-24T13:45:10;19.00;99.90
324;DHT22;149;51.094;17.002;2023-05-24T13:47:40;18.80;99.90
324;DHT22;149;51.094;17.002;2023-05-24T13:50:11;18.90;99.90
324;DHT22;149;51.094;17.002;2023-05-24T13:53:01;18.90;99.90
324;DHT22;149;51.094;17.002;2023-05-24T13:55:33;18.70;99.90
324;DHT22;149;51.094;17.002;2023-05-24T13:58:02;18.70;99.90
324;DHT22;149;51.094;17.002;2023-05-24T14:00:30;18.40;99.90
324;DHT22;149;51.094;17.002;2023-05-24T14:03:01;18.20;99.90
324;DHT22;149;51.094;17.002;2023-05-24T14:05:35;18.50;99.90
324;DHT22;149;51.094;17.002;2023-05-24T14:08:05;19.10;99.90
324;DHT22;149;51.094;17.002;2023-05-24T14:10:37;18.70;99.90
324;DHT22;149;51.094;17.002;2023-05-24T14:13:05;18.40;99.90
324;DHT22;149;51.094;17.002;2023-05-24T14:16:01;18.50;99.90
324;DHT22;149;51.094;17.002;2023-05-24T14:18:35;18.50;99.90
324;DHT22;149;51.094;17.002;2023-05-24T14:21:04;18.50;99.90
324;DHT22;149;51.094;17.002;2023-05-24T14:23:34;18.20;99.90
324;DHT22;149;51.094;17.002;2023-05-24T14:26:07;17.90;99.90
324;DHT22;149;51.094;17.002;2023-05-24T14:28:34;17.60;99.90
324;DHT22;149;51.094;17.002;2023-05-24T14:31:01;17.30;99.90
324;DHT22;149;51.094;17.002;2023-05-24T14:33:30;17.70;99.90
324;DHT22;149;51.094;17.002;2023-05-24T14:36:00;18.00;99.90
324;DHT22;149;51.094;17.002;2023-05-24T14:38:29;17.70;99.90
324;DHT22;149;51.094;17.002;2023-05-24T14:40:56;17.50;99.90
324;DHT22;149;51.094;17.002;2023-05-24T14:43:29;17.40;99.90
324;DHT22;149;51.094;17.002;2023-05-24T14:46:11;17.60;99.90
324;DHT22;149;51.094;17.002;2023-05-24T14:48:40;17.50;99.90
324;DHT22;149;51.094;17.002;2023-05-24T14:51:08;17.40;99.90
324;DHT22;149;51.094;17.002;2023-05-24T14:53:51;17.40;99.90
324;DHT22;149;51.094;17.002;2023-05-24T14:56:23;17.50;99.90
324;DHT22;149;51.094;17.002;2023-05-24T14:58:50;17.20;99.90
324;DHT22;149;51.094;17.002;2023-05-24T15:01:21;17.20;99.90
324;DHT22;149;51.094;17.002;2023-05-24T15:03:49;17.00;99.90
324;DHT22;149;51.094;17.002;2023-05-24T15:06:25;17.10;99.90
324;DHT22;149;51.094;17.002;2023-05-24T15:08:55;17.30;99.90
324;DHT22;149;51.094;17.002;2023-05-24T15:11:21;17.70;99.90
324;DHT22;149;51.094;17.002;2023-05-24T15:13:50;17.60;99.90
324;DHT22;149;51.094;17.002;2023-05-24T15:16:42;17.80;99.90
324;DHT22;149;51.094;17.002;2023-05-24T15:19:15;17.80;99.90
324;DHT22;149;51.094;17.002;2023-05-24T15:21:43;18.00;99.90
324;DHT22;149;51.094;17.002;2023-05-24T15:24:29;18.30;99.90
324;DHT22;149;51.094;17.002;2023-05-24T15:26:57;18.30;99.90
324;DHT22;149;51.094;17.002;2023-05-24T15:29:27;17.80;99.90
324;DHT22;149;51.094;17.002;2023-05-24T15:32:03;17.50;99.90
324;DHT22;149;51.094;17.002;2023-05-24T15:34:32;17.10;99.90
324;DHT22;149;51.094;17.002;2023-05-24T15:37:01;17.20;99.90
324;DHT22;149;51.094;17.002;2023-05-24T15:39:31;17.10;99.90
324;DHT22;149;51.094;17.002;2023-05-24T15:42:14;17.20;99.90
324;DHT22;149;51.094;17.002;2023-05-24T15:44:42;17.20;99.90
324;DHT22;149;51.094;17.002;2023-05-24T15:47:15;17.30;99.90
324;DHT22;149;51.094;17.002;2023-05-24T15:49:47;17.40;99.90
324;DHT22;149;51.094;17.002;2023-05-24T15:52:27;17.10;99.90
324;DHT22;149;51.094;17.002;2023-05-24T15:54:59;16.60;99.90
324;DHT22;149;51.094;17.002;2023-05-24T15:57:29;16.40;99.90
324;DHT22;149;51.094;17.002;2023-05-24T15:59:57;16.10;99.90
324;DHT22;149;51.094;17.002;2023-05-24T16:02:32;16.20;99.90
324;DHT22;149;51.094;17.002;2023-05-24T16:05:03;16.10;99.90
324;DHT22;149;51.094;17.002;2023-05-24T16:10:25;16.10;99.90
324;DHT22;149;51.094;17.002;2023-05-24T16:13:25;16.10;99.90
324;DHT22;149;51.094;17.002;2023-05-24T16:15:58;16.00;99.90
324;DHT22;149;51.094;17.002;2023-05-24T16:18:25;15.80;99.90
324;DHT22;149;51.094;17.002;2023-05-24T16:21:09;15.90;99.90
324;DHT22;149;51.094;17.002;2023-05-24T16:23:40;16.00;99.90
324;DHT22;149;51.094;17.002;2023-05-24T16:26:53;15.90;99.90
324;DHT22;149;51.094;17.002;2023-05-24T16:29:33;16.10;99.90
324;DHT22;149;51.094;17.002;2023-05-24T16:32:05;16.00;99.90
324;DHT22;149;51.094;17.002;2023-05-24T16:34:39;16.00;99.90
324;DHT22;149;51.094;17.002;2023-05-24T16:37:22;16.00;99.90
324;DHT22;149;51.094;17.002;2023-05-24T16:39:56;15.90;99.90
324;DHT22;149;51.094;17.002;2023-05-24T16:42:25;15.90;99.90
324;DHT22;149;51.094;17.002;2023-05-24T16:45:02;15.90;99.90
324;DHT22;149;51.094;17.002;2023-05-24T16:47:30;15.80;99.90
324;DHT22;149;51.094;17.002;2023-05-24T16:49:58;15.90;99.90
324;DHT22;149;51.094;17.002;2023-05-24T16:52:28;15.80;99.90
324;DHT22;149;51.094;17.002;2023-05-24T16:55:04;15.70;99.90
324;DHT22;149;51.094;17.002;2023-05-24T16:57:37;15.70;99.90
324;DHT22;149;51.094;17.002;2023-05-24T17:00:16;15.80;99.90